createdAt,value
2023-01-22T00:00:40.202Z,16.80
2023-01-22T00:03:07.157Z,17.05
2023-01-22T00:05:34.118Z,16.75
2023-01-22T00:08:01.255Z,15.75
2023-01-22T00:10:28.268Z,15.68
2023-01-22T00:12:55.196Z,16.65
2023-01-22T00:15:22.239Z,15.02
2023-01-22T00:17:49.357Z,17.30
2023-01-22T00:20:17.388Z,15.68
2023-01-22T00:22:44.505Z,15.80
2023-01-22T00:25:12.363Z,16.65
2023-01-22T00:27:41.803Z,16.10
2023-01-22T00:30:09.565Z,17.75
2023-01-22T00:32:36.498Z,17.13
2023-01-22T00:35:03.749Z,16.58
2023-01-22T00:37:30.778Z,16.85
2023-01-22T00:39:57.729Z,18.40
2023-01-22T00:42:25.297Z,17.48
2023-01-22T00:44:53.804Z,17.80
2023-01-22T00:47:20.866Z,18.30
2023-01-22T00:49:48.265Z,17.02
2023-01-22T00:52:15.283Z,18.95
2023-01-22T00:54:42.492Z,17.65
2023-01-22T00:57:09.581Z,17.02
2023-01-22T00:59:36.724Z,18.13
2023-01-22T01:02:04.232Z,18.17
2023-01-22T01:04:31.401Z,16.90
2023-01-22T01:06:58.365Z,16.20
2023-01-22T01:09:25.433Z,16.23
2023-01-22T01:11:52.340Z,17.92
2023-01-22T01:14:19.252Z,17.88
2023-01-22T01:16:46.309Z,16.63
2023-01-22T01:19:13.416Z,15.95
2023-01-22T01:21:40.491Z,17.15
2023-01-22T01:24:07.699Z,16.05
2023-01-22T01:26:35.401Z,15.65
2023-01-22T01:29:04.960Z,15.17
2023-01-22T01:31:32.116Z,14.23
2023-01-22T01:33:59.075Z,15.20
2023-01-22T01:36:50.751Z,14.98
2023-01-22T01:39:13.295Z,15.60
2023-01-22T01:41:40.465Z,18.50
2023-01-22T01:44:19.900Z,16.20
2023-01-22T01:49:48.951Z,16.35
2023-01-22T01:52:18.196Z,17.00
2023-01-22T01:54:50.214Z,16.63
2023-01-22T01:57:30.355Z,16.10
2023-01-22T01:59:59.106Z,15.63
2023-01-22T02:02:26.293Z,14.55
2023-01-22T02:04:54.301Z,14.88
2023-01-22T02:07:21.483Z,15.63
2023-01-22T02:09:48.639Z,14.75
2023-01-22T02:12:15.688Z,15.27
2023-01-22T02:14:44.633Z,15.80
2023-01-22T02:17:31.536Z,15.13
2023-01-22T02:19:58.728Z,15.32
2023-01-22T02:22:31.570Z,15.32
2023-01-22T02:24:59.676Z,15.88
2023-01-22T02:27:27.430Z,14.88
2023-01-22T02:29:54.639Z,14.38
2023-01-22T02:32:22.110Z,15.85
2023-01-22T02:34:49.326Z,15.75
2023-01-22T02:37:17.051Z,15.60
2023-01-22T02:39:44.053Z,15.90
2023-01-22T02:42:12.377Z,16.40
2023-01-22T02:44:41.065Z,17.80
2023-01-22T02:47:08.148Z,17.05
2023-01-22T02:49:35.383Z,17.88
2023-01-22T02:52:02.860Z,21.30
2023-01-22T02:54:30.825Z,19.48
2023-01-22T02:56:57.986Z,20.42
2023-01-22T02:59:25.087Z,19.25
2023-01-22T03:01:52.357Z,19.15
2023-01-22T03:04:19.495Z,17.83
2023-01-22T03:06:47.529Z,17.58
2023-01-22T03:09:17.944Z,15.30
2023-01-22T03:11:46.862Z,14.88
2023-01-22T03:14:39.253Z,15.18
2023-01-22T03:17:26.215Z,12.98
2023-01-22T03:20:11.759Z,15.25
2023-01-22T03:22:38.862Z,15.63
2023-01-22T03:25:06.280Z,15.10
2023-01-22T03:27:33.532Z,15.35
2023-01-22T03:30:00.579Z,14.02
2023-01-22T03:32:32.856Z,11.45
2023-01-22T03:34:59.948Z,11.38
2023-01-22T03:37:32.518Z,12.30
2023-01-22T03:40:00.305Z,11.55
2023-01-22T03:42:35.054Z,11.73
2023-01-22T03:45:03.635Z,10.40
2023-01-22T03:47:31.694Z,8.93
2023-01-22T03:50:00.809Z,6.95
2023-01-22T03:52:28.115Z,7.50
2023-01-22T03:54:55.136Z,6.47
2023-01-22T03:57:22.000Z,6.18
2023-01-22T03:59:49.097Z,6.18
2023-01-22T04:02:16.955Z,5.50
2023-01-22T04:05:01.684Z,5.00
2023-01-22T04:07:29.351Z,5.43
2023-01-22T04:09:56.342Z,5.40
2023-01-22T04:12:23.377Z,5.68
2023-01-22T04:14:51.617Z,5.15
2023-01-22T04:17:19.036Z,5.30
2023-01-22T04:19:51.794Z,5.07
2023-01-22T04:22:37.891Z,5.07
2023-01-22T04:25:07.275Z,5.97
2023-01-22T04:27:37.883Z,5.68
2023-01-22T04:30:06.702Z,5.38
2023-01-22T04:32:34.813Z,5.28
2023-01-22T04:35:20.375Z,5.72
2023-01-22T04:37:52.109Z,5.97
2023-01-22T04:40:20.739Z,5.72
2023-01-22T04:45:16.740Z,6.38
2023-01-22T04:47:46.186Z,5.82
2023-01-22T04:50:21.857Z,5.78
2023-01-22T04:52:51.246Z,6.90
2023-01-22T04:55:19.432Z,7.30
2023-01-22T04:57:56.487Z,6.32
2023-01-22T05:00:24.736Z,6.20
2023-01-22T05:02:59.862Z,5.82
2023-01-22T05:05:29.946Z,6.72
2023-01-22T05:07:57.768Z,5.75
2023-01-22T05:10:24.733Z,5.75
2023-01-22T05:12:53.301Z,7.28
2023-01-22T05:15:25.144Z,6.60
2023-01-22T05:17:56.762Z,7.68
2023-01-22T05:20:23.928Z,7.93
2023-01-22T05:22:51.395Z,6.38
2023-01-22T05:25:23.362Z,6.07
2023-01-22T05:27:50.520Z,6.05
2023-01-22T05:30:30.179Z,6.30
2023-01-22T05:33:11.568Z,6.00
2023-01-22T05:35:39.591Z,6.32
2023-01-22T05:38:06.707Z,6.38
2023-01-22T05:40:33.821Z,6.88
2023-01-22T05:43:03.514Z,6.75
2023-01-22T05:45:31.520Z,5.50
2023-01-22T05:48:12.811Z,6.28
2023-01-22T05:50:55.578Z,5.72
2023-01-22T05:53:22.521Z,6.40
2023-01-22T05:55:49.861Z,6.95
2023-01-22T05:58:17.285Z,6.93
2023-01-22T06:00:47.571Z,6.95
2023-01-22T06:03:16.584Z,7.25
2023-01-22T06:06:06.187Z,7.55
2023-01-22T06:08:34.495Z,8.40
2023-01-22T06:11:02.236Z,7.97
2023-01-22T06:13:29.907Z,7.47
2023-01-22T06:16:03.340Z,9.77
2023-01-22T06:18:48.869Z,9.65
2023-01-22T06:21:16.636Z,9.95
2023-01-22T06:23:44.158Z,8.85
2023-01-22T06:26:11.761Z,9.63
2023-01-22T06:28:39.089Z,9.68
2023-01-22T06:31:07.846Z,9.57
2023-01-22T06:33:37.734Z,9.68
2023-01-22T06:36:06.120Z,10.38
2023-01-22T06:38:33.539Z,10.93
2023-01-22T06:41:03.775Z,12.07
2023-01-22T06:43:32.577Z,11.07
2023-01-22T06:45:59.457Z,11.77
2023-01-22T06:49:05.386Z,12.32
2023-01-22T06:51:32.722Z,13.55
2023-01-22T06:53:59.955Z,12.57
2023-01-22T06:56:29.012Z,12.65
2023-01-22T06:58:58.041Z,13.60
2023-01-22T07:01:26.128Z,12.98
2023-01-22T07:03:53.308Z,15.98
2023-01-22T07:06:20.244Z,15.93
2023-01-22T07:08:47.574Z,18.85
2023-01-22T07:11:15.464Z,17.83
2023-01-22T07:13:42.898Z,18.75
2023-01-22T07:16:10.017Z,19.63
2023-01-22T07:18:37.094Z,19.83
2023-01-22T07:21:05.506Z,19.63
2023-01-22T07:23:32.923Z,18.73
2023-01-22T07:26:00.012Z,22.30
2023-01-22T07:28:26.961Z,23.08
2023-01-22T07:30:54.091Z,22.83
2023-01-22T07:33:21.032Z,20.42
2023-01-22T07:35:57.963Z,20.83
2023-01-22T07:38:27.867Z,20.02
2023-01-22T07:41:00.859Z,18.85
2023-01-22T07:43:28.284Z,17.73
2023-01-22T07:45:55.365Z,16.63
2023-01-22T07:48:22.414Z,16.80
2023-01-22T07:50:49.368Z,16.58
2023-01-22T07:53:16.460Z,18.65
2023-01-22T07:55:43.390Z,20.73
2023-01-22T07:58:11.972Z,16.48
2023-01-22T08:00:39.100Z,17.45
2023-01-22T08:03:10.634Z,16.48
2023-01-22T08:05:42.286Z,17.02
2023-01-22T08:08:14.894Z,16.23
2023-01-22T08:10:42.636Z,15.80
2023-01-22T08:13:09.823Z,15.85
2023-01-22T08:15:37.266Z,17.60
2023-01-22T08:18:04.685Z,17.15
2023-01-22T08:20:31.977Z,15.65
2023-01-22T08:23:00.600Z,16.55
2023-01-22T08:25:28.779Z,18.25
2023-01-22T08:27:56.369Z,22.33
2023-01-22T08:30:23.587Z,23.23
2023-01-22T08:32:51.559Z,23.58
2023-01-22T08:35:18.598Z,24.60
2023-01-22T08:37:45.652Z,24.58
2023-01-22T08:40:14.238Z,25.70
2023-01-22T08:42:41.616Z,24.30
2023-01-22T08:45:09.719Z,24.70
2023-01-22T08:47:36.633Z,25.38
2023-01-22T08:50:07.109Z,23.13
2023-01-22T08:52:33.964Z,24.83
2023-01-22T08:55:01.557Z,24.25
2023-01-22T08:57:29.601Z,24.52
2023-01-22T09:00:01.594Z,23.33
2023-01-22T09:02:30.531Z,23.13
2023-01-22T09:04:57.675Z,22.20
2023-01-22T09:07:25.950Z,20.77
2023-01-22T09:09:53.485Z,20.70
2023-01-22T09:12:20.659Z,20.05
2023-01-22T09:14:47.647Z,20.95
2023-01-22T09:17:14.617Z,20.20
2023-01-22T09:19:42.770Z,20.55
2023-01-22T09:22:09.825Z,22.05
2023-01-22T09:24:37.129Z,19.40
2023-01-22T09:27:04.079Z,20.13
2023-01-22T09:29:31.550Z,21.92
2023-01-22T09:32:01.035Z,17.17
2023-01-22T09:34:28.510Z,16.95
2023-01-22T09:36:55.670Z,16.15
2023-01-22T09:39:22.682Z,16.55
2023-01-22T09:41:53.042Z,15.85
2023-01-22T09:44:31.821Z,14.98
2023-01-22T09:47:07.640Z,13.50
2023-01-22T09:49:50.767Z,12.90
2023-01-22T09:52:17.902Z,11.73
2023-01-22T09:54:44.978Z,11.75
2023-01-22T09:57:29.973Z,14.48
2023-01-22T09:59:58.598Z,15.55
2023-01-22T10:02:44.403Z,14.23
2023-01-22T10:05:33.268Z,14.25
2023-01-22T10:08:19.831Z,14.20
2023-01-22T10:10:48.769Z,15.15
2023-01-22T10:13:23.777Z,15.90
2023-01-22T10:15:55.849Z,15.65
2023-01-22T10:18:43.659Z,15.40
2023-01-22T10:21:23.907Z,13.65
2023-01-22T10:23:51.866Z,13.20
2023-01-22T10:26:25.677Z,13.05
2023-01-22T10:28:56.741Z,13.90
2023-01-22T10:31:31.128Z,13.35
2023-01-22T10:34:00.527Z,12.15
2023-01-22T10:36:29.204Z,12.73
2023-01-22T10:39:22.619Z,12.52
2023-01-22T10:41:50.594Z,12.07
2023-01-22T10:44:25.589Z,11.13
2023-01-22T10:46:55.084Z,11.50
2023-01-22T10:51:57.083Z,10.18
2023-01-22T10:54:23.963Z,8.10
2023-01-22T10:56:51.533Z,7.35
2023-01-22T10:59:23.360Z,6.80
2023-01-22T11:01:58.261Z,7.30
2023-01-22T11:04:31.462Z,6.55
2023-01-22T11:07:06.247Z,7.00
2023-01-22T11:09:39.386Z,5.72
2023-01-22T11:12:20.148Z,5.85
2023-01-22T11:14:58.468Z,5.22
2023-01-22T11:17:34.521Z,5.47
2023-01-22T11:20:11.555Z,5.35
2023-01-22T11:22:43.564Z,5.97
2023-01-22T11:25:14.300Z,4.47
2023-01-22T11:28:07.764Z,5.90
2023-01-22T11:31:03.482Z,7.72
2023-01-22T11:34:07.510Z,6.55
2023-01-22T11:36:38.949Z,7.07
2023-01-22T11:39:24.654Z,6.80
2023-01-22T11:42:11.525Z,7.90
2023-01-22T11:45:16.167Z,8.40
2023-01-22T11:48:12.670Z,7.50
2023-01-22T11:50:48.327Z,6.53
2023-01-22T11:53:27.744Z,5.93
2023-01-22T11:58:42.529Z,5.35
2023-01-22T12:01:25.117Z,4.95
2023-01-22T12:04:01.138Z,4.10
2023-01-22T12:07:22.900Z,5.20
2023-01-22T12:10:28.492Z,4.03
2023-01-22T12:13:14.285Z,3.15
2023-01-22T12:16:05.441Z,4.60
2023-01-22T12:18:51.615Z,4.43
2023-01-22T12:21:53.994Z,3.22
2023-01-22T12:24:42.952Z,2.95
2023-01-22T12:27:15.646Z,2.70
2023-01-22T12:29:54.148Z,2.50
2023-01-22T12:32:31.456Z,2.53
2023-01-22T12:35:05.859Z,3.03
2023-01-22T12:37:44.367Z,3.10
2023-01-22T12:40:11.363Z,3.25
2023-01-22T12:42:49.528Z,3.10
2023-01-22T12:45:53.570Z,2.63
2023-01-22T12:48:49.431Z,2.80
2023-01-22T12:51:39.138Z,2.70
2023-01-22T12:54:27.901Z,3.08
2023-01-22T12:57:09.800Z,2.70
2023-01-22T12:59:45.187Z,4.47
2023-01-22T13:06:29.934Z,3.00
2023-01-22T13:08:57.202Z,2.50
2023-01-22T13:11:39.794Z,2.78
2023-01-22T13:14:15.334Z,2.45
2023-01-22T13:16:55.130Z,2.67
2023-01-22T13:21:50.575Z,2.95
2023-01-22T13:24:22.195Z,2.63
2023-01-22T13:26:52.702Z,2.42
2023-01-22T13:29:34.100Z,2.35
2023-01-22T13:32:04.721Z,2.47
2023-01-22T13:34:32.582Z,2.80
2023-01-22T13:36:59.841Z,2.88
2023-01-22T13:39:30.479Z,2.72
2023-01-22T13:42:00.899Z,2.80
2023-01-22T13:44:47.846Z,3.03
2023-01-22T13:47:29.410Z,2.53
2023-01-22T13:49:56.750Z,2.83
2023-01-22T13:52:25.238Z,3.50
2023-01-22T13:55:11.657Z,2.70
2023-01-22T13:57:51.205Z,2.72
2023-01-22T14:00:51.905Z,2.85
2023-01-22T14:03:23.821Z,2.45
2023-01-22T14:06:01.570Z,3.00
2023-01-22T14:08:28.725Z,3.08
2023-01-22T14:11:00.373Z,2.97
2023-01-22T14:13:27.539Z,2.70
2023-01-22T14:16:02.114Z,2.67
2023-01-22T14:18:29.720Z,2.65
2023-01-22T14:20:56.880Z,2.97
2023-01-22T14:23:24.345Z,2.80
2023-01-22T14:25:54.707Z,2.80
2023-01-22T14:28:23.786Z,2.65
2023-01-22T14:30:51.685Z,2.60
2023-01-22T14:33:25.380Z,3.35
2023-01-22T14:35:53.351Z,3.45
2023-01-22T14:38:20.398Z,3.63
2023-01-22T14:40:47.603Z,3.83
2023-01-22T14:43:14.691Z,3.17
2023-01-22T14:45:43.738Z,3.08
2023-01-22T14:48:15.451Z,3.28
2023-01-22T14:50:43.143Z,3.08
2023-01-22T14:53:11.269Z,3.53
2023-01-22T14:56:01.755Z,3.78
2023-01-22T14:58:30.095Z,3.10
2023-01-22T15:00:57.026Z,2.80
2023-01-22T15:03:24.255Z,2.95
2023-01-22T15:05:52.041Z,2.97
2023-01-22T15:08:19.036Z,3.42
2023-01-22T15:10:46.331Z,3.05
2023-01-22T15:13:13.354Z,3.17
2023-01-22T15:15:40.376Z,3.10
2023-01-22T15:18:08.411Z,3.75
2023-01-22T15:20:35.478Z,3.90
2023-01-22T15:23:02.563Z,3.90
2023-01-22T15:25:29.988Z,4.00
2023-01-22T15:27:57.058Z,2.95
2023-01-22T15:30:24.154Z,3.25
2023-01-22T15:32:51.234Z,3.25
2023-01-22T15:35:18.085Z,2.75
2023-01-22T15:37:50.262Z,2.72
2023-01-22T15:40:19.689Z,2.80
2023-01-22T15:42:46.892Z,2.78
2023-01-22T15:45:13.858Z,2.97
2023-01-22T15:47:40.894Z,3.30
2023-01-22T15:50:08.503Z,2.92
2023-01-22T15:52:35.349Z,3.10
2023-01-22T15:55:07.231Z,3.20
2023-01-22T15:57:36.971Z,3.70
2023-01-22T16:00:06.120Z,3.78
2023-01-22T16:02:41.460Z,4.10
2023-01-22T16:05:09.119Z,3.42
2023-01-22T16:07:37.979Z,3.08
2023-01-22T16:10:06.057Z,4.05
2023-01-22T16:12:34.917Z,4.55
2023-01-22T16:15:02.000Z,4.35
2023-01-22T16:17:29.925Z,4.07
2023-01-22T16:19:56.872Z,3.92
2023-01-22T16:22:24.893Z,4.18
2023-01-22T16:24:52.083Z,4.50
2023-01-22T16:27:19.096Z,4.45
2023-01-22T16:29:46.021Z,4.50
2023-01-22T16:32:13.102Z,4.70
2023-01-22T16:34:40.064Z,4.43
2023-01-22T16:37:07.043Z,5.07
2023-01-22T16:39:36.122Z,5.47
2023-01-22T16:42:03.206Z,6.15
2023-01-22T16:44:33.348Z,5.47
2023-01-22T16:47:00.801Z,5.28
2023-01-22T16:49:32.840Z,5.68
2023-01-22T16:52:16.580Z,5.82
2023-01-22T16:54:48.355Z,5.75
2023-01-22T16:57:15.716Z,6.80
2023-01-22T16:59:42.912Z,6.35
2023-01-22T17:02:16.430Z,6.10
2023-01-22T17:04:44.882Z,6.93
2023-01-22T17:07:27.478Z,7.13
2023-01-22T17:09:59.683Z,6.40
2023-01-22T17:12:26.920Z,6.18
2023-01-22T17:14:54.019Z,6.03
2023-01-22T17:17:21.073Z,5.75
2023-01-22T17:19:48.154Z,5.90
2023-01-22T17:22:15.272Z,6.13
2023-01-22T17:24:42.293Z,6.43
2023-01-22T17:27:09.689Z,5.80
2023-01-22T17:29:36.886Z,6.32
2023-01-22T17:32:04.787Z,6.57
2023-01-22T17:34:32.005Z,6.38
2023-01-22T17:37:00.526Z,6.77
2023-01-22T17:39:27.866Z,5.63
2023-01-22T17:41:54.904Z,5.75
2023-01-22T17:44:22.048Z,5.50
2023-01-22T17:46:51.263Z,7.72
2023-01-22T17:49:18.179Z,5.53
2023-01-22T17:51:45.143Z,5.70
2023-01-22T17:54:12.327Z,6.00
2023-01-22T17:56:47.327Z,6.93
2023-01-22T17:59:16.764Z,7.30
2023-01-22T18:01:45.208Z,7.43
2023-01-22T18:04:13.807Z,9.27
2023-01-22T18:06:43.549Z,9.63
2023-01-22T18:09:12.479Z,8.63
2023-01-22T18:11:41.094Z,9.18
2023-01-22T18:14:11.947Z,8.47
2023-01-22T18:16:41.014Z,8.95
2023-01-22T18:19:08.447Z,8.45
2023-01-22T18:21:37.421Z,8.43
2023-01-22T18:24:06.630Z,7.97
2023-01-22T18:26:34.943Z,8.35
2023-01-22T18:29:02.839Z,7.65
2023-01-22T18:31:30.293Z,8.00
2023-01-22T18:34:02.893Z,8.57
2023-01-22T18:36:32.714Z,11.40
2023-01-22T18:39:01.754Z,9.05
2023-01-22T18:41:29.049Z,8.93
2023-01-22T18:43:58.696Z,9.82
2023-01-22T18:46:28.566Z,9.07
2023-01-22T18:48:58.384Z,9.15
2023-01-22T18:51:26.741Z,10.40
2023-01-22T18:53:54.518Z,10.25
2023-01-22T18:56:21.812Z,9.75
2023-01-22T18:58:49.018Z,8.90
2023-01-22T19:01:22.101Z,9.07
2023-01-22T19:03:55.139Z,8.30
2023-01-22T19:06:24.596Z,8.77
2023-01-22T19:09:03.962Z,10.93
2023-01-22T19:14:00.364Z,8.10
2023-01-22T19:16:28.229Z,8.75
2023-01-22T19:18:58.121Z,8.32
2023-01-22T19:21:27.017Z,8.90
2023-01-22T19:23:57.515Z,8.82
2023-01-22T19:26:27.250Z,8.32
2023-01-22T19:28:57.539Z,8.98
2023-01-22T19:31:28.581Z,8.00
2023-01-22T19:33:56.594Z,7.47
2023-01-22T19:36:27.378Z,7.55
2023-01-22T19:38:56.441Z,6.38
2023-01-22T19:41:23.787Z,6.47
2023-01-22T19:43:55.135Z,6.93
2023-01-22T19:46:22.415Z,7.18
2023-01-22T19:48:49.590Z,7.80
2023-01-22T19:51:19.204Z,8.13
2023-01-22T19:53:48.735Z,6.43
2023-01-22T19:58:51.927Z,6.50
2023-01-22T20:01:19.172Z,6.60
2023-01-22T20:03:46.111Z,5.72
2023-01-22T20:06:14.693Z,5.45
2023-01-22T20:08:42.360Z,4.60
2023-01-22T20:11:11.384Z,5.72
2023-01-22T20:13:39.414Z,4.97
2023-01-22T20:16:07.162Z,5.47
2023-01-22T20:18:34.767Z,4.70
2023-01-22T20:21:04.188Z,6.18
2023-01-22T20:23:31.426Z,5.90
2023-01-22T20:26:00.713Z,6.55
2023-01-22T20:28:27.976Z,5.38
2023-01-22T20:31:04.787Z,7.13
2023-01-22T20:33:32.482Z,6.05
2023-01-22T20:36:02.549Z,5.03
2023-01-22T20:38:30.037Z,4.95
2023-01-22T20:41:02.354Z,5.60
2023-01-22T20:43:30.024Z,5.10
2023-01-22T20:46:03.110Z,6.35
2023-01-22T20:48:31.762Z,6.15
2023-01-22T20:50:59.172Z,5.53
2023-01-22T20:53:27.644Z,5.97
2023-01-22T20:56:07.911Z,6.50
2023-01-22T20:58:35.980Z,6.30
2023-01-22T21:01:11.730Z,6.00
2023-01-22T21:03:38.730Z,6.35
2023-01-22T21:06:08.236Z,6.68
2023-01-22T21:08:35.380Z,6.63
2023-01-22T21:11:08.480Z,7.07
2023-01-22T21:13:36.547Z,6.63
2023-01-22T21:16:10.476Z,6.82
2023-01-22T21:18:41.567Z,7.03
2023-01-22T21:21:14.632Z,7.95
2023-01-22T21:23:41.736Z,7.22
2023-01-22T21:26:12.091Z,6.53
2023-01-22T21:28:40.129Z,6.80
2023-01-22T21:31:13.237Z,6.40
2023-01-22T21:33:40.784Z,5.88
2023-01-22T21:36:09.061Z,6.25
2023-01-22T21:38:36.783Z,5.97
2023-01-22T21:41:12.924Z,6.45
2023-01-22T21:44:00.679Z,7.00
2023-01-22T21:46:30.789Z,6.82
2023-01-22T21:49:01.484Z,7.20
2023-01-22T21:51:29.865Z,7.78
2023-01-22T21:53:58.708Z,7.88
2023-01-22T21:56:26.716Z,7.90
2023-01-22T21:58:55.668Z,8.18
2023-01-22T22:01:22.717Z,8.23
2023-01-22T22:03:49.697Z,8.18
2023-01-22T22:06:16.751Z,7.35
2023-01-22T22:08:44.497Z,7.68
2023-01-22T22:11:14.118Z,6.07
2023-01-22T22:13:41.119Z,6.80
2023-01-22T22:16:10.284Z,5.88
2023-01-22T22:18:37.583Z,6.07
2023-01-22T22:21:07.504Z,5.68
2023-01-22T22:23:36.528Z,6.90
2023-01-22T22:26:05.832Z,5.68
2023-01-22T22:28:34.347Z,6.10
2023-01-22T22:31:08.290Z,5.88
2023-01-22T22:33:35.242Z,5.72
2023-01-22T22:36:02.278Z,6.53
2023-01-22T22:38:29.267Z,5.90
2023-01-22T22:41:02.103Z,5.93
2023-01-22T22:43:38.023Z,5.78
2023-01-22T22:46:32.810Z,6.50
2023-01-22T22:49:01.403Z,6.63
2023-01-22T22:51:32.188Z,6.90
2023-01-22T22:54:02.382Z,6.90
2023-01-22T22:56:29.859Z,6.82
2023-01-22T22:58:58.909Z,7.20
2023-01-22T23:01:26.918Z,8.00
2023-01-22T23:03:54.328Z,6.65
2023-01-22T23:06:26.924Z,7.28
2023-01-22T23:09:09.790Z,7.60
2023-01-22T23:11:36.898Z,7.00
2023-01-22T23:14:04.837Z,6.82
2023-01-22T23:16:34.619Z,6.57
2023-01-22T23:19:04.283Z,6.30
2023-01-22T23:21:35.119Z,6.22
2023-01-22T23:24:02.786Z,6.25
2023-01-22T23:26:30.787Z,5.65
2023-01-22T23:29:00.766Z,5.22
2023-01-22T23:31:30.168Z,6.03
2023-01-22T23:36:28.513Z,5.60
2023-01-22T23:38:55.730Z,5.38
2023-01-22T23:41:23.526Z,5.88
2023-01-22T23:43:51.161Z,5.85
2023-01-22T23:46:24.043Z,5.82
2023-01-22T23:48:51.684Z,6.22
2023-01-22T23:51:19.522Z,6.50
2023-01-22T23:53:48.563Z,6.05
2023-01-22T23:56:16.105Z,6.35
2023-01-22T23:58:43.472Z,6.40
